Time;durP1;ratioP1;P1;durP2;ratioP2;P2;SDS_P1;SDS_P2;PMS_P1;PMS_P2;Temp;Humidity;BMP_temperature;BMP_pressure;BME280_temperature;BME280_humidity;BME280_pressure;Samples;Min_cycle;Max_cycle;Signal;HPM_P1;HPM_P2
2023/03/31 07:23:13;;;;;;;10.60;3.78;;;;;;;-145.79;95.88;76501.97;5279127;28;20382;-72
2023/03/31 07:25:46;;;;;;;9.13;3.65;;;;;;;-145.79;95.22;76491.38;5278222;28;20043;-72
2023/03/31 07:28:17;;;;;;;7.53;2.88;;;;;;;-145.79;94.98;76489.25;5268776;28;20040;-72
2023/03/31 07:30:48;;;;;;;5.28;3.00;;;;;;;-145.79;94.23;76482.88;5257842;28;20484;-71
2023/03/31 07:33:20;;;;;;;4.22;2.20;;;;;;;-145.79;92.14;76480.78;5258237;28;20033;-71
2023/03/31 07:35:51;;;;;;;5.18;1.95;;;;;;;-145.79;91.53;76476.53;5257147;28;20133;-71
2023/03/31 07:38:22;;;;;;;4.50;2.20;;;;;;;-145.79;91.03;76478.66;5258394;28;20429;-71
2023/03/31 07:40:54;;;;;;;4.07;2.05;;;;;;;-145.79;91.13;76474.41;5258905;28;20029;-71
2023/03/31 07:43:25;;;;;;;7.05;3.13;;;;;;;-145.79;91.88;76472.28;5258140;28;20025;-74
2023/03/31 07:45:56;;;;;;;8.77;2.05;;;;;;;-145.79;92.40;76461.69;5277129;28;20103;-74
2023/03/31 07:48:28;;;;;;;5.40;2.50;;;;;;;-145.79;92.55;76453.22;5276841;28;20488;-67
2023/03/31 07:50:59;;;;;;;7.72;2.50;;;;;;;-145.79;92.41;76453.22;5276464;28;20036;-67
2023/03/31 07:53:31;;;;;;;6.90;2.60;;;;;;;-145.79;93.14;76451.09;5278860;28;20356;-68
2023/03/31 07:56:02;;;;;;;11.95;3.20;;;;;;;-145.79;93.52;76442.63;5264405;28;20033;-69
2023/03/31 07:58:34;;;;;;;7.93;2.72;;;;;;;-145.79;93.12;76434.16;5261161;28;20116;-70
2023/03/31 08:01:06;;;;;;;7.70;3.33;;;;;;;-145.79;93.75;76406.59;5276710;28;20033;-70
2023/03/31 08:03:37;;;;;;;11.05;3.83;;;;;;;-145.79;93.32;76412.97;5276844;28;20120;-71
2023/03/31 08:06:09;;;;;;;12.30;3.50;;;;;;;-145.79;93.63;76406.59;5275964;28;20107;-70
2023/03/31 08:08:41;;;;;;;10.20;3.38;;;;;;;-145.79;93.22;76393.88;5267876;28;20482;-70
2023/03/31 08:11:13;;;;;;;10.02;3.45;;;;;;;-145.79;92.58;76393.88;5277890;28;20063;-72
2023/03/31 08:13:44;;;;;;;9.75;3.50;;;;;;;-145.79;92.77;76387.53;5278097;28;20069;-71
2023/03/31 08:16:15;;;;;;;13.48;5.28;;;;;;;-145.79;93.03;76391.78;5275921;28;20099;-71
2023/03/31 08:18:47;;;;;;;9.80;3.63;;;;;;;-145.79;93.03;76372.69;5272356;28;20119;-70
2023/03/31 08:21:18;;;;;;;13.63;4.30;;;;;;;-145.79;92.92;76370.56;5277936;28;20057;-69
2023/03/31 08:23:53;;;;;;;9.82;4.55;;;;;;;-145.79;92.97;76357.84;5262309;28;20033;-70
2023/03/31 08:26:24;;;;;;;13.05;3.60;;;;;;;-145.79;92.37;76357.84;5256827;28;20025;-70
2023/03/31 08:28:57;;;;;;;15.18;6.22;;;;;;;-145.79;92.08;76355.75;5257066;28;20074;-70
2023/03/31 08:31:29;;;;;;;12.82;6.60;;;;;;;-145.79;91.68;76347.25;5259658;28;20033;-70
2023/03/31 08:34:01;;;;;;;13.70;5.05;;;;;;;-145.79;91.24;76343.03;5254756;28;20383;-70
2023/03/31 08:36:33;;;;;;;12.18;4.25;;;;;;;-145.79;91.83;76347.25;5252122;28;20022;-70
2023/03/31 08:39:05;;;;;;;14.23;4.50;;;;;;;-145.79;91.36;76343.03;5255731;28;20468;-70
2023/03/31 08:42:01;;;;;;;12.15;5.45;;;;;;;-145.79;91.98;76332.44;5258605;28;20071;-68
2023/03/31 08:44:38;;;;;;;15.43;4.82;;;;;;;-145.79;91.18;76338.78;5257968;28;20461;-69
2023/03/31 08:47:21;;;;;;;13.75;4.70;;;;;;;-145.79;90.73;76328.19;5242114;28;20064;-68
2023/03/31 08:50:01;;;;;;;11.90;4.50;;;;;;;-145.79;91.12;76326.06;5242552;28;20097;-69
2023/03/31 08:52:51;;;;;;;12.60;3.78;;;;;;;-145.79;90.59;76315.47;5242867;28;20025;-69
2023/03/31 08:55:31;;;;;;;11.10;4.68;;;;;;;-145.79;89.60;76317.59;5242370;28;20404;-71
2023/03/31 08:58:14;;;;;;;12.30;4.70;;;;;;;-145.79;88.89;76309.13;5242783;28;20484;-71
2023/03/31 09:01:15;;;;;;;17.40;4.28;;;;;;;-145.79;87.65;76304.88;5243326;28;20026;-71
2023/03/31 09:04:04;;;;;;;13.05;4.40;;;;;;;-145.79;87.20;76300.66;5263509;28;20033;-71
2023/03/31 09:06:40;;;;;;;13.38;5.30;;;;;;;-145.79;87.54;76304.88;5262583;28;20468;-72
2023/03/31 09:09:28;;;;;;;9.48;3.80;;;;;;;-145.79;87.63;76294.28;5262464;28;20025;-72
2023/03/31 09:12:09;;;;;;;11.95;4.60;;;;;;;-145.79;87.33;76287.94;5252395;28;20033;-71
2023/03/31 09:14:45;;;;;;;13.10;3.30;;;;;;;-145.79;85.68;76275.22;5240691;28;20377;-72
2023/03/31 09:17:28;;;;;;;12.77;5.22;;;;;;;-145.79;84.98;76275.22;5250891;28;20029;-72
2023/03/31 09:20:13;;;;;;;12.15;4.32;;;;;;;-145.79;82.68;76275.22;5263267;28;20420;-71
2023/03/31 09:22:49;;;;;;;14.48;3.50;;;;;;;-145.79;83.02;76270.97;5262778;28;20048;-73
2023/03/31 09:25:30;;;;;;;14.05;5.38;;;;;;;-145.79;83.20;76264.63;5253128;28;20526;-70
2023/03/31 09:28:11;;;;;;;10.38;3.75;;;;;;;-145.79;81.54;76264.63;5251440;28;20056;-71
2023/03/31 09:30:48;;;;;;;15.00;5.13;;;;;;;-145.79;82.26;76266.75;5262638;28;20021;-69
2023/03/31 09:33:31;;;;;;;17.50;6.00;;;;;;;-145.79;81.60;76258.25;5263012;28;20029;-69
2023/03/31 09:36:14;;;;;;;11.98;3.72;;;;;;;-145.79;79.74;76260.38;5260073;28;20022;-71
2023/03/31 09:38:46;;;;;;;11.45;3.72;;;;;;;-145.79;80.14;76247.66;5251406;28;20401;-70
2023/03/31 09:41:18;;;;;;;11.00;3.42;;;;;;;-145.79;78.33;76241.31;5261744;28;20043;-72
2023/03/31 09:43:50;;;;;;;14.50;3.55;;;;;;;-145.79;78.31;76241.31;5244847;28;20107;-70
2023/03/31 09:46:34;;;;;;;11.88;4.25;;;;;;;-145.79;78.49;76230.72;5240569;28;20037;-68
2023/03/31 09:49:12;;;;;;;8.85;3.45;;;;;;;-145.79;79.08;76215.88;5240735;28;20033;-70
2023/03/31 09:51:47;;;;;;;10.60;3.42;;;;;;;-145.79;77.72;76215.88;5241447;28;20021;-71
2023/03/31 09:54:28;;;;;;;10.82;4.13;;;;;;;-145.79;77.27;76205.28;5244840;28;20163;-70
2023/03/31 09:56:59;;;;;;;13.15;5.50;;;;;;;-145.79;77.64;76203.16;5255714;28;20103;-70
2023/03/31 09:59:33;;;;;;;8.13;3.30;;;;;;;-145.79;76.83;76203.16;5253387;28;20028;-69
2023/03/31 10:02:23;;;;;;;13.30;3.63;;;;;;;-145.79;76.14;76188.34;5242167;28;20033;-70
2023/03/31 10:04:55;;;;;;;8.75;3.15;;;;;;;-145.79;74.71;76181.97;5259693;28;20037;-70
2023/03/31 10:07:26;;;;;;;11.70;5.05;;;;;;;-145.79;73.90;76186.22;5261779;28;20047;-70
2023/03/31 10:09:58;;;;;;;9.40;4.28;;;;;;;-145.79;73.42;76177.75;5260623;28;20025;-70
2023/03/31 10:12:30;;;;;;;8.20;3.13;;;;;;;-145.79;74.28;76175.63;5261135;28;20151;-69
2023/03/31 10:15:18;;;;;;;11.57;3.38;;;;;;;-145.79;74.01;76175.63;5261574;28;20029;-71
2023/03/31 10:17:49;;;;;;;9.05;3.45;;;;;;;-145.79;73.83;76177.75;5255306;28;20021;-70
2023/03/31 10:20:36;;;;;;;9.07;4.13;;;;;;;-145.79;75.21;76167.16;5240738;28;20076;-70
2023/03/31 10:23:31;;;;;;;8.82;3.33;;;;;;;-145.79;72.70;76173.50;5240682;28;20456;-69
2023/03/31 10:26:03;;;;;;;8.13;2.80;;;;;;;-145.79;73.21;76184.09;5248593;28;20036;-70
2023/03/31 10:28:35;;;;;;;8.43;2.83;;;;;;;-145.79;73.31;76169.25;5261687;28;20020;-71
2023/03/31 10:31:07;;;;;;;11.65;4.03;;;;;;;-145.79;73.75;76173.50;5245501;28;20068;-70
2023/03/31 10:33:43;;;;;;;7.88;5.18;;;;;;;-145.79;74.09;76173.50;5246011;28;20487;-69
2023/03/31 10:36:17;;;;;;;11.80;3.58;;;;;;;-145.79;74.09;76177.75;5251036;28;20028;-69
2023/03/31 10:38:51;;;;;;;8.65;3.13;;;;;;;-145.79;74.75;76173.50;5260731;28;20108;-70
2023/03/31 10:41:29;;;;;;;9.68;3.10;;;;;;;-145.79;75.89;76181.97;5260590;28;20032;-69
2023/03/31 10:44:02;;;;;;;7.47;3.17;;;;;;;-145.79;75.89;76177.75;5250323;28;20029;-69
2023/03/31 10:46:51;;;;;;;9.15;3.35;;;;;;;-145.79;76.66;76167.16;5239281;28;20036;-69
2023/03/31 10:49:26;;;;;;;9.88;3.50;;;;;;;-145.79;74.82;76169.25;5240736;28;20025;-70
2023/03/31 10:51:59;;;;;;;9.57;3.10;;;;;;;-145.79;75.40;76150.19;5239648;28;20548;-70
2023/03/31 10:54:31;;;;;;;8.40;2.60;;;;;;;-145.79;74.51;76150.19;5240843;28;20421;-70
2023/03/31 10:57:05;;;;;;;14.05;4.20;;;;;;;-145.79;74.36;76139.59;5240278;28;20108;-69
2023/03/31 10:59:42;;;;;;;9.60;2.95;;;;;;;-145.79;74.68;76133.25;5240913;28;20469;-69
2023/03/31 11:02:42;;;;;;;15.65;5.15;;;;;;;-145.79;74.74;76133.25;5240172;28;20048;-69
2023/03/31 11:05:55;;;;;;;15.32;10.88;;;;;;;-145.79;75.00;76133.25;5240255;28;20031;-69
2023/03/31 11:08:40;;;;;;;14.98;6.60;;;;;;;-145.79;75.76;76148.06;5245331;28;20389;-69
2023/03/31 11:11:23;;;;;;;12.90;3.97;;;;;;;-145.79;76.09;76150.19;5240560;28;20021;-71
2023/03/31 11:14:13;;;;;;;13.10;3.08;;;;;;;-145.79;76.50;76158.66;5242152;28;20029;-71
2023/03/31 11:16:53;;;;;;;13.15;4.35;;;;;;;-145.79;78.28;76154.44;5240112;28;20034;-70
2023/03/31 11:19:32;;;;;;;11.18;4.40;;;;;;;-145.79;77.67;76158.66;5240424;28;20435;-71
2023/03/31 11:22:15;;;;;;;9.15;3.53;;;;;;;-145.79;78.15;76148.06;5239892;28;20077;-72
2023/03/31 11:25:24;;;;;;;13.18;3.90;;;;;;;-145.79;78.16;76139.59;5240134;28;20028;-71
2023/03/31 11:28:17;;;;;;;13.90;5.57;;;;;;;-145.79;77.50;76131.13;5244747;28;20388;-71
2023/03/31 11:31:14;;;;;;;11.85;3.60;;;;;;;-145.79;75.74;76114.19;5239819;28;20048;-69
2023/03/31 11:34:31;;;;;;;10.88;4.30;;;;;;;-145.79;74.58;76101.47;5239498;28;20034;-70
2023/03/31 11:37:10;;;;;;;;;;;;;;;-145.79;74.45;76101.47;5240142;28;20048;-70
2023/03/31 11:40:20;;;;;;;8.85;4.07;;;;;;;-145.79;73.93;76082.38;5240682;28;20418;-70
2023/03/31 11:43:00;;;;;;;9.90;3.40;;;;;;;-145.79;72.52;76082.38;5236571;28;20540;-71
2023/03/31 11:45:44;;;;;;;10.07;4.25;;;;;;;-145.79;70.85;76082.38;5237592;28;20120;-71
2023/03/31 11:48:25;;;;;;;12.20;3.67;;;;;;;-145.79;70.65;76080.28;5237513;28;20033;-71
2023/03/31 11:50:59;;;;;;;10.50;3.63;;;;;;;-145.79;68.92;76073.91;5241180;28;20041;-71
2023/03/31 11:53:35;;;;;;;17.55;7.72;;;;;;;-145.79;69.22;76067.56;5249863;28;20033;-71
2023/03/31 11:56:11;;;;;;;8.20;4.47;;;;;;;-145.79;68.46;76054.84;5253473;28;20036;-71
2023/03/31 11:58:57;;;;;;;7.40;2.85;;;;;;;-145.79;67.85;76046.38;5247783;28;20032;-71
2023/03/31 12:01:42;;;;;;;7.90;3.10;;;;;;;-145.79;67.39;76033.66;5241035;28;20037;-71
2023/03/31 12:04:20;;;;;;;7.80;2.90;;;;;;;-145.79;66.12;76035.78;5255645;28;20353;-70
2023/03/31 12:06:57;;;;;;;6.88;2.60;;;;;;;-145.79;65.39;76025.19;5258884;28;20044;-74
2023/03/31 12:09:33;;;;;;;9.00;2.72;;;;;;;-145.79;64.84;76023.06;5262685;28;20029;-70
2023/03/31 12:12:11;;;;;;;9.07;2.70;;;;;;;-145.79;65.28;76020.94;5246911;28;20026;-69
2023/03/31 12:14:50;;;;;;;10.02;2.78;;;;;;;-145.79;65.46;76016.69;5254132;28;20091;-68
2023/03/31 12:17:25;;;;;;;7.32;2.97;;;;;;;-145.79;66.10;76012.47;5259582;28;20029;-71
2023/03/31 12:20:05;;;;;;;9.35;3.08;;;;;;;-145.79;66.66;76010.34;5263162;28;20045;-70
2023/03/31 12:22:42;;;;;;;10.05;3.08;;;;;;;-145.79;67.36;76006.09;5248261;28;20092;-70
2023/03/31 12:25:15;;;;;;;10.00;3.47;;;;;;;-145.79;66.55;76004.00;5263445;28;20020;-71
2023/03/31 12:27:53;;;;;;;7.28;2.50;;;;;;;-145.79;67.28;75995.50;5253378;28;20042;-71
2023/03/31 12:30:33;;;;;;;6.00;2.30;;;;;;;-145.79;67.77;75982.81;5242584;28;20029;-71
2023/03/31 12:33:28;;;;;;;5.22;2.83;;;;;;;-145.79;68.18;75970.09;5242811;28;20041;-70
2023/03/31 12:36:24;;;;;;;10.27;2.58;;;;;;;-145.79;67.25;75955.25;5238637;28;20397;-69
2023/03/31 12:39:21;;;;;;;6.55;2.60;;;;;;;-145.79;66.01;75953.13;5244284;28;20128;-70
2023/03/31 12:42:14;;;;;;;28.88;25.70;;;;;;;-145.79;65.44;75940.41;5252860;28;20017;-71
2023/03/31 12:45:38;;;;;;;5.32;2.90;;;;;;;-145.79;65.15;75940.41;5242309;28;20034;-72
2023/03/31 12:48:09;;;;;;;6.30;2.78;;;;;;;-145.79;65.26;75959.50;5233429;28;20037;-72
2023/03/31 12:50:40;;;;;;;8.32;2.70;;;;;;;-145.79;64.71;75957.38;5237294;28;20033;-72
2023/03/31 12:53:24;;;;;;;7.18;2.50;;;;;;;-145.79;65.54;75957.38;5238746;28;20045;-72
2023/03/31 12:55:56;;;;;;;8.90;3.50;;;;;;;-145.79;65.97;75948.91;5242391;28;20025;-72
2023/03/31 12:58:28;;;;;;;7.20;3.45;;;;;;;-145.79;66.53;75963.72;5241978;28;20060;-72
2023/03/31 13:01:06;;;;;;;8.32;3.05;;;;;;;-145.79;67.38;75961.63;5261453;28;20492;-73
2023/03/31 13:04:05;;;;;;;6.93;2.97;;;;;;;-145.79;69.58;75961.63;5261342;28;20028;-72
2023/03/31 13:06:37;;;;;;;8.07;2.50;;;;;;;-145.79;69.99;75987.03;5241578;28;20079;-72
2023/03/31 13:09:14;;;;;;;8.70;3.63;;;;;;;-145.79;71.06;75997.63;5243117;28;20472;-71
2023/03/31 13:11:48;;;;;;;7.18;2.55;;;;;;;-145.79;70.71;75997.63;5242488;28;20039;-69
2023/03/31 13:14:30;;;;;;;9.27;2.78;;;;;;;-145.79;70.78;75995.50;5241564;28;20052;-71
2023/03/31 13:17:28;;;;;;;7.38;2.42;;;;;;;-145.79;69.87;75991.28;5249716;28;20388;-71
2023/03/31 13:20:31;;;;;;;6.90;3.58;;;;;;;-145.79;69.85;75997.63;5262220;28;20480;-72
2023/03/31 13:23:10;;;;;;;10.63;3.00;;;;;;;-145.79;72.63;76004.00;5247841;28;20082;-71
2023/03/31 13:25:43;;;;;;;10.68;4.32;;;;;;;-145.79;72.56;76010.34;5250121;28;20025;-71
2023/03/31 13:28:30;;;;;;;6.75;2.90;;;;;;;-145.79;73.36;76014.59;5241717;28;20022;-72
2023/03/31 13:31:04;;;;;;;6.68;1.88;;;;;;;-145.79;72.43;76016.69;5242264;28;20091;-70
2023/03/31 13:33:43;;;;;;;5.32;1.85;;;;;;;-145.79;73.28;76027.28;5241408;28;20037;-70
2023/03/31 13:36:18;;;;;;;6.38;1.73;;;;;;;-145.79;73.64;76020.94;5240996;28;20132;-69
2023/03/31 13:39:04;;;;;;;4.90;2.00;;;;;;;-145.79;73.66;76027.28;5241545;28;20029;-69
2023/03/31 13:41:36;;;;;;;5.53;2.58;;;;;;;-145.79;73.75;76033.66;5241628;28;20060;-70
2023/03/31 13:44:24;;;;;;;6.00;2.33;;;;;;;-145.79;73.86;76044.25;5241627;28;20116;-69
2023/03/31 13:47:34;;;;;;;6.40;1.67;;;;;;;-145.79;73.80;76042.13;5250009;28;20517;-70
2023/03/31 13:50:43;;;;;;;4.10;1.77;;;;;;;-145.79;75.75;76042.13;5255562;28;20079;-69
2023/03/31 13:53:53;;;;;;;7.55;2.35;;;;;;;-145.79;76.62;76048.47;5260351;28;20037;-69
2023/03/31 13:56:33;;;;;;;7.07;2.22;;;;;;;-145.79;76.08;76063.31;5241031;28;20156;-70
2023/03/31 13:59:32;;;;;;;6.53;1.92;;;;;;;-145.79;77.05;76063.31;5241907;28;20022;-70
2023/03/31 14:02:21;;;;;;;7.60;3.03;;;;;;;-145.79;78.51;76076.03;5240227;28;20025;-70
2023/03/31 14:05:17;;;;;;;5.70;2.30;;;;;;;-145.79;79.86;76082.38;5241514;28;20120;-69
2023/03/31 14:07:58;;;;;;;7.38;2.33;;;;;;;-145.79;80.59;76088.75;5256480;28;20036;-69
2023/03/31 14:10:36;;;;;;;6.82;1.90;;;;;;;-145.79;81.60;76101.47;5261293;28;20365;-70
2023/03/31 14:13:12;;;;;;;6.65;2.63;;;;;;;-145.79;80.66;76105.69;5242200;28;20031;-70
2023/03/31 14:15:47;;;;;;;6.25;2.50;;;;;;;-145.79;80.64;76105.69;5245567;28;20111;-69
2023/03/31 14:18:42;;;;;;;7.07;1.98;;;;;;;-145.79;81.05;76092.97;5259716;28;20022;-68
2023/03/31 14:21:41;;;;;;;6.03;1.83;;;;;;;-145.79;80.18;76084.50;5252146;28;20045;-69
2023/03/31 14:24:39;;;;;;;5.82;1.85;;;;;;;-145.79;80.65;76067.56;5254363;28;20029;-69
2023/03/31 14:27:18;;;;;;;6.13;3.05;;;;;;;-145.79;79.59;76069.69;5241364;28;20040;-69
2023/03/31 14:30:17;;;;;;;5.65;1.88;;;;;;;-145.79;79.25;76073.91;5239910;28;20163;-69
2023/03/31 14:33:38;;;;;;;6.00;1.85;;;;;;;-145.79;78.30;76071.78;5246352;28;20021;-69
2023/03/31 14:36:28;;;;;;;3.92;1.90;;;;;;;-145.79;79.01;76073.91;5249734;28;20370;-68
2023/03/31 14:39:02;;;;;;;3.63;1.30;;;;;;;-145.79;76.94;76067.56;5260343;28;20067;-67
2023/03/31 14:41:36;;;;;;;3.90;1.42;;;;;;;-145.79;76.61;76073.91;5255723;28;20029;-67
2023/03/31 14:44:14;;;;;;;2.88;1.77;;;;;;;-145.79;75.81;76071.78;5245551;28;20043;-67
2023/03/31 14:46:46;;;;;;;4.30;1.05;;;;;;;-145.79;74.32;76073.91;5261422;28;20096;-66
2023/03/31 14:49:21;;;;;;;4.30;1.95;;;;;;;-145.79;73.30;76076.03;5260256;28;20131;-67
2023/03/31 14:51:55;;;;;;;3.17;1.10;;;;;;;-145.79;73.31;76067.56;5239507;28;20044;-68
2023/03/31 14:54:26;;;;;;;1.95;1.10;;;;;;;-145.79;73.42;76084.50;5248268;28;20032;-67
2023/03/31 14:56:58;;;;;;;1.40;0.90;;;;;;;-145.79;72.24;76084.50;5243997;28;20071;-69
2023/03/31 14:59:33;;;;;;;1.80;0.90;;;;;;;-145.79;73.24;76082.38;5243910;28;20381;-69
2023/03/31 15:02:05;;;;;;;2.43;1.10;;;;;;;-145.79;72.46;76086.63;5260472;28;20148;-68
2023/03/31 15:04:43;;;;;;;1.58;0.85;;;;;;;-145.79;72.51;76099.34;5261428;28;20070;-70
2023/03/31 15:07:16;;;;;;;2.42;0.98;;;;;;;-145.79;72.92;76105.69;5244155;28;20038;-70
2023/03/31 15:09:50;;;;;;;3.65;1.33;;;;;;;-145.79;74.74;76105.69;5240290;28;20040;-71
2023/03/31 15:12:22;;;;;;;3.65;1.30;;;;;;;-145.79;75.44;76101.47;5239533;28;20434;-70
2023/03/31 15:15:02;;;;;;;1.73;0.82;;;;;;;-145.79;75.30;76099.34;5240005;28;20033;-70
2023/03/31 15:17:44;;;;;;;2.47;0.90;;;;;;;-145.79;76.24;76105.69;5239843;28;20072;-69
2023/03/31 15:20:27;;;;;;;1.25;0.70;;;;;;;-145.79;76.37;76084.50;5239324;28;20108;-70
2023/03/31 15:22:59;;;;;;;1.05;0.60;;;;;;;-145.79;76.34;76095.09;5250635;28;20049;-70
2023/03/31 15:25:35;;;;;;;3.20;0.98;;;;;;;-145.79;76.60;76101.47;5240027;28;20542;-76
2023/03/31 15:28:12;;;;;;;1.38;0.82;;;;;;;-145.79;77.37;76103.56;5238519;28;20363;-68
2023/03/31 15:30:46;;;;;;;2.58;0.80;;;;;;;-145.79;77.73;76103.56;5240024;28;20393;-68
2023/03/31 15:33:30;;;;;;;0.98;0.85;;;;;;;-145.79;77.66;76112.06;5239377;28;20037;-69
2023/03/31 15:36:02;;;;;;;2.15;0.90;;;;;;;-145.79;78.51;76109.94;5239875;28;20079;-68
2023/03/31 15:38:34;;;;;;;1.63;0.82;;;;;;;-145.79;78.75;76116.28;5260446;28;20029;-66
2023/03/31 15:41:16;;;;;;;2.83;1.02;;;;;;;-145.79;79.31;76109.94;5251673;28;20052;-67
2023/03/31 15:44:01;;;;;;;1.15;0.80;;;;;;;-145.79;79.24;76122.66;5242678;28;20022;-68
2023/03/31 15:46:42;;;;;;;2.45;1.10;;;;;;;-145.79;80.44;76120.53;5246811;28;20480;-69
2023/03/31 15:49:22;;;;;;;2.22;1.27;;;;;;;-145.79;81.23;76122.66;5263780;28;20078;-68
2023/03/31 15:51:59;;;;;;;4.25;1.00;;;;;;;-145.79;81.25;76131.13;5264553;28;20029;-69
2023/03/31 15:54:40;;;;;;;2.30;1.10;;;;;;;-145.79;81.82;76131.13;5263855;28;20021;-68
2023/03/31 15:57:17;;;;;;;3.58;0.93;;;;;;;-145.79;81.76;76139.59;5263610;28;20025;-68
2023/03/31 15:59:50;;;;;;;2.05;1.08;;;;;;;-145.79;81.62;76145.97;5243895;28;20025;-69
2023/03/31 16:02:25;;;;;;;1.95;1.05;;;;;;;-145.79;82.87;76148.06;5254942;28;20411;-68
2023/03/31 16:04:58;;;;;;;2.15;1.20;;;;;;;-145.79;81.87;76143.84;5243495;28;20501;-67
2023/03/31 16:07:33;;;;;;;6.68;4.82;;;;;;;-145.79;81.55;76135.38;5243841;28;20029;-67
2023/03/31 16:10:14;;;;;;;2.70;1.33;;;;;;;-145.79;81.43;76143.84;5242727;28;20435;-67
2023/03/31 16:12:59;;;;;;;1.77;0.88;;;;;;;-145.79;81.44;76131.13;5243592;28;20055;-67
2023/03/31 16:15:41;;;;;;;1.75;0.98;;;;;;;-145.79;80.62;76135.38;5253398;28;20036;-68
2023/03/31 16:18:25;;;;;;;1.98;0.95;;;;;;;-145.79;80.41;76129.00;5262567;28;20491;-67
2023/03/31 16:20:58;;;;;;;2.45;1.10;;;;;;;-145.79;80.05;76131.13;5264083;28;20077;-68
2023/03/31 16:23:33;;;;;;;1.33;0.82;;;;;;;-145.79;80.19;76126.88;5263538;28;20021;-68
2023/03/31 16:26:06;;;;;;;1.75;1.10;;;;;;;-145.79;79.66;76129.00;5263605;28;20021;-67
2023/03/31 16:28:38;;;;;;;1.20;0.88;;;;;;;-145.79;80.74;76126.88;5264373;28;20078;-68
2023/03/31 16:31:28;;;;;;;1.15;0.90;;;;;;;-145.79;80.40;76114.19;5260461;28;20032;-67
2023/03/31 16:34:00;;;;;;;1.83;0.88;;;;;;;-145.79;80.59;76137.47;5243374;28;20121;-67
2023/03/31 16:36:33;;;;;;;1.83;0.90;;;;;;;-145.79;80.43;76135.38;5241489;28;20087;-67
2023/03/31 16:39:05;;;;;;;1.45;0.85;;;;;;;-145.79;80.00;76135.38;5243044;28;20307;-67
2023/03/31 16:41:37;;;;;;;2.63;1.15;;;;;;;-145.79;80.20;76124.78;5241539;28;20068;-69
2023/03/31 16:44:08;;;;;;;3.45;1.67;;;;;;;-145.79;79.83;76120.53;5241852;28;20412;-67
2023/03/31 16:46:39;;;;;;;3.95;1.00;;;;;;;-145.79;79.74;76122.66;5246495;28;20351;-69
2023/03/31 16:49:11;;;;;;;2.70;1.10;;;;;;;-145.79;79.59;76118.41;5249223;28;20029;-67
2023/03/31 16:51:42;;;;;;;5.40;1.50;;;;;;;-145.79;79.44;76116.28;5243837;28;20045;-67
2023/03/31 16:54:13;;;;;;;3.78;1.60;;;;;;;-145.79;78.83;76126.88;5253402;28;20029;-68
